Upper Pig Pen, North Carolina
Current Conditions -  °F | °C
As of 3:35 AM on Sunday 23 Nov 2014 (Local Time) from K0A9 Reporting Station
Clear Clear  
Wind Chill: 35°   Ceiling: Unl
Heat Index: 39°   Visibility: 10mi
Dew Point: 28°   Wind: 6mph
Humidity: 65%   Direction: 50°NE
Pressure: 30.18"   Gusts: NA
Location:  35.955°N, 82.2044°W
Report Text: K0A9 230835Z AUTO 05005KT 10SM CLR 04/M02 A3018 RMK
Loading
Personal Weather Stations






























Interactive Weather Map New forecast layout! Learn more

10-Day Weather Forecast

Advertisements
Track Severe Weather on mobile